sensor_id;sensor_type;location;lat;lon;timestamp;temperature;humidity
2783;DHT22;1399;47.072;15.452;2024-02-26T00:00:42;10.70;49.90
2783;DHT22;1399;47.072;15.452;2024-02-26T00:03:14;10.70;50.00
2783;DHT22;1399;47.072;15.452;2024-02-26T00:05:40;10.70;50.00
2783;DHT22;1399;47.072;15.452;2024-02-26T00:08:20;10.60;50.00
2783;DHT22;1399;47.072;15.452;2024-02-26T00:10:46;10.60;50.10
2783;DHT22;1399;47.072;15.452;2024-02-26T00:13:12;10.60;50.10
2783;DHT22;1399;47.072;15.452;2024-02-26T00:15:47;10.50;50.10
2783;DHT22;1399;47.072;15.452;2024-02-26T00:18:19;10.50;50.20
2783;DHT22;1399;47.072;15.452;2024-02-26T00:20:58;10.50;50.20
2783;DHT22;1399;47.072;15.452;2024-02-26T00:23:24;10.50;50.30
2783;DHT22;1399;47.072;15.452;2024-02-26T00:25:50;10.50;50.30
2783;DHT22;1399;47.072;15.452;2024-02-26T00:28:17;10.50;50.30
2783;DHT22;1399;47.072;15.452;2024-02-26T00:30:54;10.50;50.40
2783;DHT22;1399;47.072;15.452;2024-02-26T00:33:21;10.50;50.40
2783;DHT22;1399;47.072;15.452;2024-02-26T00:35:57;10.40;50.30
2783;DHT22;1399;47.072;15.452;2024-02-26T00:38:23;10.40;50.30
2783;DHT22;1399;47.072;15.452;2024-02-26T00:40:49;10.40;50.20
2783;DHT22;1399;47.072;15.452;2024-02-26T00:43:15;10.40;50.20
2783;DHT22;1399;47.072;15.452;2024-02-26T00:45:42;10.40;50.20
2783;DHT22;1399;47.072;15.452;2024-02-26T00:48:09;10.40;50.20
2783;DHT22;1399;47.072;15.452;2024-02-26T00:50:35;10.40;50.20
2783;DHT22;1399;47.072;15.452;2024-02-26T00:53:04;10.40;50.20
2783;DHT22;1399;47.072;15.452;2024-02-26T00:55:30;10.40;50.20
2783;DHT22;1399;47.072;15.452;2024-02-26T00:57:57;10.30;50.20
2783;DHT22;1399;47.072;15.452;2024-02-26T01:00:22;10.40;50.30
2783;DHT22;1399;47.072;15.452;2024-02-26T01:02:51;10.30;50.30
2783;DHT22;1399;47.072;15.452;2024-02-26T01:05:17;10.30;50.30
2783;DHT22;1399;47.072;15.452;2024-02-26T01:07:44;10.30;50.20
2783;DHT22;1399;47.072;15.452;2024-02-26T01:10:37;10.30;50.30
2783;DHT22;1399;47.072;15.452;2024-02-26T01:13:06;10.30;50.30
2783;DHT22;1399;47.072;15.452;2024-02-26T01:15:33;10.20;50.20
2783;DHT22;1399;47.072;15.452;2024-02-26T01:17:59;10.20;50.30
2783;DHT22;1399;47.072;15.452;2024-02-26T01:20:24;10.20;50.30
2783;DHT22;1399;47.072;15.452;2024-02-26T01:22:58;10.20;50.30
2783;DHT22;1399;47.072;15.452;2024-02-26T01:25:44;10.20;50.40
2783;DHT22;1399;47.072;15.452;2024-02-26T01:28:10;10.20;50.40
2783;DHT22;1399;47.072;15.452;2024-02-26T01:30:36;10.20;50.40
2783;DHT22;1399;47.072;15.452;2024-02-26T01:33:03;10.20;50.40
2783;DHT22;1399;47.072;15.452;2024-02-26T01:35:45;10.20;50.40
2783;DHT22;1399;47.072;15.452;2024-02-26T01:38:24;10.20;50.40
2783;DHT22;1399;47.072;15.452;2024-02-26T01:41:09;10.10;50.30
2783;DHT22;1399;47.072;15.452;2024-02-26T01:43:41;10.10;50.30
2783;DHT22;1399;47.072;15.452;2024-02-26T01:46:25;10.10;50.30
2783;DHT22;1399;47.072;15.452;2024-02-26T01:49:01;10.10;50.30
2783;DHT22;1399;47.072;15.452;2024-02-26T01:51:28;10.10;50.30
2783;DHT22;1399;47.072;15.452;2024-02-26T01:54:15;10.10;50.30
2783;DHT22;1399;47.072;15.452;2024-02-26T01:56:44;10.10;50.30
2783;DHT22;1399;47.072;15.452;2024-02-26T01:59:10;10.10;50.30
2783;DHT22;1399;47.072;15.452;2024-02-26T02:01:48;10.00;50.30
2783;DHT22;1399;47.072;15.452;2024-02-26T02:04:25;10.00;50.30
2783;DHT22;1399;47.072;15.452;2024-02-26T02:06:52;10.00;50.20
2783;DHT22;1399;47.072;15.452;2024-02-26T02:09:19;10.00;50.20
2783;DHT22;1399;47.072;15.452;2024-02-26T02:11:58;10.00;50.10
2783;DHT22;1399;47.072;15.452;2024-02-26T02:14:26;10.00;50.20
2783;DHT22;1399;47.072;15.452;2024-02-26T02:16:52;10.00;50.20
2783;DHT22;1399;47.072;15.452;2024-02-26T02:19:18;9.90;51.00
2783;DHT22;1399;47.072;15.452;2024-02-26T02:21:44;9.90;51.00
2783;DHT22;1399;47.072;15.452;2024-02-26T02:24:13;9.90;51.00
2783;DHT22;1399;47.072;15.452;2024-02-26T02:26:40;9.90;51.10
2783;DHT22;1399;47.072;15.452;2024-02-26T02:29:17;9.90;51.10
2783;DHT22;1399;47.072;15.452;2024-02-26T02:31:52;9.90;51.10
2783;DHT22;1399;47.072;15.452;2024-02-26T02:34:18;9.80;51.00
2783;DHT22;1399;47.072;15.452;2024-02-26T02:37:05;9.80;51.20
2783;DHT22;1399;47.072;15.452;2024-02-26T02:39:43;9.80;51.00
2783;DHT22;1399;47.072;15.452;2024-02-26T02:42:13;9.80;51.00
2783;DHT22;1399;47.072;15.452;2024-02-26T02:44:42;9.80;51.10
2783;DHT22;1399;47.072;15.452;2024-02-26T02:47:10;9.70;51.10
2783;DHT22;1399;47.072;15.452;2024-02-26T02:49:45;9.70;51.10
2783;DHT22;1399;47.072;15.452;2024-02-26T02:52:11;9.70;51.20
2783;DHT22;1399;47.072;15.452;2024-02-26T02:54:37;9.70;51.20
2783;DHT22;1399;47.072;15.452;2024-02-26T02:57:06;9.70;51.20
2783;DHT22;1399;47.072;15.452;2024-02-26T02:59:35;9.70;51.30
2783;DHT22;1399;47.072;15.452;2024-02-26T03:02:01;9.70;51.30
2783;DHT22;1399;47.072;15.452;2024-02-26T03:04:28;9.60;51.30
2783;DHT22;1399;47.072;15.452;2024-02-26T03:06:55;9.60;51.20
2783;DHT22;1399;47.072;15.452;2024-02-26T03:09:32;9.60;51.30
2783;DHT22;1399;47.072;15.452;2024-02-26T03:11:58;9.60;51.30
2783;DHT22;1399;47.072;15.452;2024-02-26T03:14:25;9.60;51.40
2783;DHT22;1399;47.072;15.452;2024-02-26T03:16:54;9.60;51.30
2783;DHT22;1399;47.072;15.452;2024-02-26T03:19:30;9.60;51.30
2783;DHT22;1399;47.072;15.452;2024-02-26T03:22:16;9.60;51.40
2783;DHT22;1399;47.072;15.452;2024-02-26T03:24:42;9.60;51.40
2783;DHT22;1399;47.072;15.452;2024-02-26T03:27:20;9.50;51.30
2783;DHT22;1399;47.072;15.452;2024-02-26T03:29:47;9.50;51.40
2783;DHT22;1399;47.072;15.452;2024-02-26T03:32:14;9.50;51.40
2783;DHT22;1399;47.072;15.452;2024-02-26T03:34:49;9.50;51.40
2783;DHT22;1399;47.072;15.452;2024-02-26T03:37:15;9.50;51.30
2783;DHT22;1399;47.072;15.452;2024-02-26T03:39:41;9.50;51.30
2783;DHT22;1399;47.072;15.452;2024-02-26T03:42:08;9.50;51.30
2783;DHT22;1399;47.072;15.452;2024-02-26T03:44:34;9.50;51.30
2783;DHT22;1399;47.072;15.452;2024-02-26T03:49:49;9.40;51.30
2783;DHT22;1399;47.072;15.452;2024-02-26T03:52:16;9.40;51.30
2783;DHT22;1399;47.072;15.452;2024-02-26T03:54:42;9.40;51.40
2783;DHT22;1399;47.072;15.452;2024-02-26T03:57:07;9.40;52.00
2783;DHT22;1399;47.072;15.452;2024-02-26T03:59:33;9.40;51.50
2783;DHT22;1399;47.072;15.452;2024-02-26T04:01:59;9.40;51.50
2783;DHT22;1399;47.072;15.452;2024-02-26T04:04:29;9.30;51.50
2783;DHT22;1399;47.072;15.452;2024-02-26T04:06:56;9.30;51.50
2783;DHT22;1399;47.072;15.452;2024-02-26T04:09:22;9.30;51.50
2783;DHT22;1399;47.072;15.452;2024-02-26T04:11:48;9.30;51.60
2783;DHT22;1399;47.072;15.452;2024-02-26T04:14:13;9.30;51.60
2783;DHT22;1399;47.072;15.452;2024-02-26T04:16:39;9.30;51.60
2783;DHT22;1399;47.072;15.452;2024-02-26T04:19:05;9.30;51.70
2783;DHT22;1399;47.072;15.452;2024-02-26T04:21:32;9.30;51.80
2783;DHT22;1399;47.072;15.452;2024-02-26T04:23:58;9.30;51.80
2783;DHT22;1399;47.072;15.452;2024-02-26T04:26:30;9.30;51.80
2783;DHT22;1399;47.072;15.452;2024-02-26T04:28:56;9.30;51.90
2783;DHT22;1399;47.072;15.452;2024-02-26T04:31:22;9.30;51.90
2783;DHT22;1399;47.072;15.452;2024-02-26T04:33:48;9.30;51.80
2783;DHT22;1399;47.072;15.452;2024-02-26T04:36:14;9.20;51.80
2783;DHT22;1399;47.072;15.452;2024-02-26T04:38:42;9.20;51.70
2783;DHT22;1399;47.072;15.452;2024-02-26T04:41:26;9.20;51.70
2783;DHT22;1399;47.072;15.452;2024-02-26T04:43:58;9.20;51.80
2783;DHT22;1399;47.072;15.452;2024-02-26T04:46:24;9.20;51.80
2783;DHT22;1399;47.072;15.452;2024-02-26T04:48:51;9.20;51.80
2783;DHT22;1399;47.072;15.452;2024-02-26T04:51:16;9.20;51.80
2783;DHT22;1399;47.072;15.452;2024-02-26T04:53:42;9.20;51.80
2783;DHT22;1399;47.072;15.452;2024-02-26T04:56:08;9.20;52.00
2783;DHT22;1399;47.072;15.452;2024-02-26T04:58:34;9.10;51.70
2783;DHT22;1399;47.072;15.452;2024-02-26T05:00:59;9.10;51.60
2783;DHT22;1399;47.072;15.452;2024-02-26T05:03:25;9.10;51.60
2783;DHT22;1399;47.072;15.452;2024-02-26T05:05:51;9.10;51.70
2783;DHT22;1399;47.072;15.452;2024-02-26T05:08:17;9.10;51.60
2783;DHT22;1399;47.072;15.452;2024-02-26T05:10:45;9.10;51.70
2783;DHT22;1399;47.072;15.452;2024-02-26T05:13:11;9.10;51.70
2783;DHT22;1399;47.072;15.452;2024-02-26T05:15:37;9.00;51.60
2783;DHT22;1399;47.072;15.452;2024-02-26T05:18:03;9.00;51.70
2783;DHT22;1399;47.072;15.452;2024-02-26T05:20:29;9.00;51.70
2783;DHT22;1399;47.072;15.452;2024-02-26T05:22:55;9.00;51.70
2783;DHT22;1399;47.072;15.452;2024-02-26T05:25:20;9.00;51.70
2783;DHT22;1399;47.072;15.452;2024-02-26T05:27:46;9.00;51.70
2783;DHT22;1399;47.072;15.452;2024-02-26T05:30:12;9.00;51.70
2783;DHT22;1399;47.072;15.452;2024-02-26T05:32:38;9.00;51.70
2783;DHT22;1399;47.072;15.452;2024-02-26T05:35:04;9.00;51.80
2783;DHT22;1399;47.072;15.452;2024-02-26T05:37:30;9.00;51.80
2783;DHT22;1399;47.072;15.452;2024-02-26T05:39:56;9.00;51.80
2783;DHT22;1399;47.072;15.452;2024-02-26T05:42:22;9.00;51.80
2783;DHT22;1399;47.072;15.452;2024-02-26T05:44:47;9.00;51.80
2783;DHT22;1399;47.072;15.452;2024-02-26T05:47:13;9.00;51.80
2783;DHT22;1399;47.072;15.452;2024-02-26T05:49:39;8.90;51.80
2783;DHT22;1399;47.072;15.452;2024-02-26T05:52:06;8.90;51.70
2783;DHT22;1399;47.072;15.452;2024-02-26T05:54:32;9.00;51.80
2783;DHT22;1399;47.072;15.452;2024-02-26T05:56:58;9.00;51.80
2783;DHT22;1399;47.072;15.452;2024-02-26T05:59:24;9.00;51.70
2783;DHT22;1399;47.072;15.452;2024-02-26T06:01:49;9.00;51.70
2783;DHT22;1399;47.072;15.452;2024-02-26T06:04:15;9.00;51.70
2783;DHT22;1399;47.072;15.452;2024-02-26T06:06:44;9.00;51.70
2783;DHT22;1399;47.072;15.452;2024-02-26T06:09:09;9.00;51.70
2783;DHT22;1399;47.072;15.452;2024-02-26T06:11:37;9.00;51.70
2783;DHT22;1399;47.072;15.452;2024-02-26T06:14:03;9.00;52.40
2783;DHT22;1399;47.072;15.452;2024-02-26T06:16:28;9.00;51.70
2783;DHT22;1399;47.072;15.452;2024-02-26T06:18:54;9.00;51.70
2783;DHT22;1399;47.072;15.452;2024-02-26T06:21:20;9.00;51.70
2783;DHT22;1399;47.072;15.452;2024-02-26T06:23:45;9.00;51.70
2783;DHT22;1399;47.072;15.452;2024-02-26T06:26:11;9.10;51.80
2783;DHT22;1399;47.072;15.452;2024-02-26T06:28:37;9.10;51.90
2783;DHT22;1399;47.072;15.452;2024-02-26T06:31:06;9.10;51.90
2783;DHT22;1399;47.072;15.452;2024-02-26T06:33:32;9.10;51.90
2783;DHT22;1399;47.072;15.452;2024-02-26T06:35:58;9.10;51.90
2783;DHT22;1399;47.072;15.452;2024-02-26T06:38:24;9.20;52.00
2783;DHT22;1399;47.072;15.452;2024-02-26T06:40:50;9.20;52.00
2783;DHT22;1399;47.072;15.452;2024-02-26T06:43:15;9.20;52.00
2783;DHT22;1399;47.072;15.452;2024-02-26T06:45:41;9.20;52.10
2783;DHT22;1399;47.072;15.452;2024-02-26T06:48:07;9.20;52.10
2783;DHT22;1399;47.072;15.452;2024-02-26T06:50:33;9.30;52.20
2783;DHT22;1399;47.072;15.452;2024-02-26T06:52:58;9.30;52.20
2783;DHT22;1399;47.072;15.452;2024-02-26T06:55:24;9.30;52.20
2783;DHT22;1399;47.072;15.452;2024-02-26T06:57:50;9.40;52.30
2783;DHT22;1399;47.072;15.452;2024-02-26T07:00:16;9.40;52.30
2783;DHT22;1399;47.072;15.452;2024-02-26T07:02:42;9.40;52.30
2783;DHT22;1399;47.072;15.452;2024-02-26T07:05:08;9.50;52.40
2783;DHT22;1399;47.072;15.452;2024-02-26T07:07:34;9.50;52.40
2783;DHT22;1399;47.072;15.452;2024-02-26T07:10:00;9.50;52.40
2783;DHT22;1399;47.072;15.452;2024-02-26T07:12:30;9.50;52.40
2783;DHT22;1399;47.072;15.452;2024-02-26T07:14:56;9.60;52.50
2783;DHT22;1399;47.072;15.452;2024-02-26T07:17:22;9.60;52.40
2783;DHT22;1399;47.072;15.452;2024-02-26T07:19:47;9.60;52.40
2783;DHT22;1399;47.072;15.452;2024-02-26T07:22:13;9.60;52.40
2783;DHT22;1399;47.072;15.452;2024-02-26T07:24:39;9.70;52.40
2783;DHT22;1399;47.072;15.452;2024-02-26T07:27:05;9.70;52.40
2783;DHT22;1399;47.072;15.452;2024-02-26T07:29:30;9.80;52.50
2783;DHT22;1399;47.072;15.452;2024-02-26T07:31:57;9.80;52.40
2783;DHT22;1399;47.072;15.452;2024-02-26T07:34:23;9.80;52.50
2783;DHT22;1399;47.072;15.452;2024-02-26T07:36:53;9.90;52.50
2783;DHT22;1399;47.072;15.452;2024-02-26T07:39:19;9.90;52.60
2783;DHT22;1399;47.072;15.452;2024-02-26T07:41:45;9.90;52.60
2783;DHT22;1399;47.072;15.452;2024-02-26T07:44:14;10.00;51.80
2783;DHT22;1399;47.072;15.452;2024-02-26T07:46:39;10.00;51.80
2783;DHT22;1399;47.072;15.452;2024-02-26T07:49:05;10.00;51.80
2783;DHT22;1399;47.072;15.452;2024-02-26T07:51:31;10.10;51.90
2783;DHT22;1399;47.072;15.452;2024-02-26T07:53:56;10.10;51.90
2783;DHT22;1399;47.072;15.452;2024-02-26T07:56:22;10.10;52.60
2783;DHT22;1399;47.072;15.452;2024-02-26T07:58:48;10.20;52.00
2783;DHT22;1399;47.072;15.452;2024-02-26T08:01:14;10.20;52.00
2783;DHT22;1399;47.072;15.452;2024-02-26T08:03:40;10.30;52.10
2783;DHT22;1399;47.072;15.452;2024-02-26T08:06:07;10.30;52.10
2783;DHT22;1399;47.072;15.452;2024-02-26T08:08:33;10.40;52.10
2783;DHT22;1399;47.072;15.452;2024-02-26T08:10:59;10.40;52.10
2783;DHT22;1399;47.072;15.452;2024-02-26T08:13:25;10.40;52.10
2783;DHT22;1399;47.072;15.452;2024-02-26T08:15:52;10.50;52.10
2783;DHT22;1399;47.072;15.452;2024-02-26T08:18:18;10.50;52.10
2783;DHT22;1399;47.072;15.452;2024-02-26T08:20:44;10.60;52.10
2783;DHT22;1399;47.072;15.452;2024-02-26T08:23:10;10.60;52.00
2783;DHT22;1399;47.072;15.452;2024-02-26T08:25:36;10.60;51.90
2783;DHT22;1399;47.072;15.452;2024-02-26T08:28:02;10.70;51.90
2783;DHT22;1399;47.072;15.452;2024-02-26T08:30:28;10.70;51.90
2783;DHT22;1399;47.072;15.452;2024-02-26T08:32:54;10.80;51.90
2783;DHT22;1399;47.072;15.452;2024-02-26T08:35:20;10.90;51.90
2783;DHT22;1399;47.072;15.452;2024-02-26T08:37:47;10.90;51.90
2783;DHT22;1399;47.072;15.452;2024-02-26T08:40:13;11.00;51.80
2783;DHT22;1399;47.072;15.452;2024-02-26T08:42:39;11.00;51.70
2783;DHT22;1399;47.072;15.452;2024-02-26T08:45:05;11.10;51.60
2783;DHT22;1399;47.072;15.452;2024-02-26T08:47:32;11.10;51.50
2783;DHT22;1399;47.072;15.452;2024-02-26T08:49:58;11.20;51.50
2783;DHT22;1399;47.072;15.452;2024-02-26T08:52:24;11.20;51.40
2783;DHT22;1399;47.072;15.452;2024-02-26T08:54:50;11.30;51.30
2783;DHT22;1399;47.072;15.452;2024-02-26T08:57:16;11.40;51.20
2783;DHT22;1399;47.072;15.452;2024-02-26T08:59:41;11.40;51.20
2783;DHT22;1399;47.072;15.452;2024-02-26T09:02:08;11.50;51.10
2783;DHT22;1399;47.072;15.452;2024-02-26T09:04:35;11.50;51.00
2783;DHT22;1399;47.072;15.452;2024-02-26T09:07:01;11.50;50.90
2783;DHT22;1399;47.072;15.452;2024-02-26T09:09:27;11.60;50.90
2783;DHT22;1399;47.072;15.452;2024-02-26T09:11:53;11.60;50.80
2783;DHT22;1399;47.072;15.452;2024-02-26T09:14:21;11.70;50.80
2783;DHT22;1399;47.072;15.452;2024-02-26T09:16:46;11.70;50.70
2783;DHT22;1399;47.072;15.452;2024-02-26T09:19:14;11.80;50.80
2783;DHT22;1399;47.072;15.452;2024-02-26T09:21:44;11.80;50.70
2783;DHT22;1399;47.072;15.452;2024-02-26T09:24:13;11.80;50.70
2783;DHT22;1399;47.072;15.452;2024-02-26T09:26:39;11.90;50.70
2783;DHT22;1399;47.072;15.452;2024-02-26T09:29:04;11.90;50.50
2783;DHT22;1399;47.072;15.452;2024-02-26T09:31:31;11.90;50.40
2783;DHT22;1399;47.072;15.452;2024-02-26T09:33:57;12.00;50.30
2783;DHT22;1399;47.072;15.452;2024-02-26T09:36:23;12.00;50.20
2783;DHT22;1399;47.072;15.452;2024-02-26T09:38:49;12.10;50.20
2783;DHT22;1399;47.072;15.452;2024-02-26T09:41:15;12.10;50.20
2783;DHT22;1399;47.072;15.452;2024-02-26T09:43:45;12.20;50.30
2783;DHT22;1399;47.072;15.452;2024-02-26T09:46:14;12.20;50.10
2783;DHT22;1399;47.072;15.452;2024-02-26T09:48:43;12.20;50.00
2783;DHT22;1399;47.072;15.452;2024-02-26T09:51:11;12.30;50.00
2783;DHT22;1399;47.072;15.452;2024-02-26T09:53:38;12.30;49.90
2783;DHT22;1399;47.072;15.452;2024-02-26T09:56:08;12.40;49.90
2783;DHT22;1399;47.072;15.452;2024-02-26T09:58:35;12.40;49.70
2783;DHT22;1399;47.072;15.452;2024-02-26T10:01:03;12.50;49.80
2783;DHT22;1399;47.072;15.452;2024-02-26T10:03:40;12.50;49.60
2783;DHT22;1399;47.072;15.452;2024-02-26T10:06:10;12.60;49.60
2783;DHT22;1399;47.072;15.452;2024-02-26T10:08:37;12.70;49.50
2783;DHT22;1399;47.072;15.452;2024-02-26T10:11:07;12.70;49.40
2783;DHT22;1399;47.072;15.452;2024-02-26T10:13:34;12.80;49.40
2783;DHT22;1399;47.072;15.452;2024-02-26T10:16:01;12.80;49.30
2783;DHT22;1399;47.072;15.452;2024-02-26T10:18:48;12.80;49.20
2783;DHT22;1399;47.072;15.452;2024-02-26T10:21:16;12.90;49.90
2783;DHT22;1399;47.072;15.452;2024-02-26T10:23:44;12.90;49.80
2783;DHT22;1399;47.072;15.452;2024-02-26T10:26:12;12.90;49.00
2783;DHT22;1399;47.072;15.452;2024-02-26T10:28:39;12.90;49.00
2783;DHT22;1399;47.072;15.452;2024-02-26T10:31:05;13.00;49.00
2783;DHT22;1399;47.072;15.452;2024-02-26T10:33:34;13.10;49.00
2783;DHT22;1399;47.072;15.452;2024-02-26T10:36:04;13.10;48.90
2783;DHT22;1399;47.072;15.452;2024-02-26T10:38:32;13.10;48.70
2783;DHT22;1399;47.072;15.452;2024-02-26T10:40:58;13.10;48.50
2783;DHT22;1399;47.072;15.452;2024-02-26T10:43:26;13.10;48.40
2783;DHT22;1399;47.072;15.452;2024-02-26T10:45:51;13.20;48.60
2783;DHT22;1399;47.072;15.452;2024-02-26T10:48:17;13.20;48.50
2783;DHT22;1399;47.072;15.452;2024-02-26T10:50:43;13.20;48.30
2783;DHT22;1399;47.072;15.452;2024-02-26T10:53:19;13.30;48.40
2783;DHT22;1399;47.072;15.452;2024-02-26T10:55:49;13.30;48.40
2783;DHT22;1399;47.072;15.452;2024-02-26T10:58:18;13.40;48.40
2783;DHT22;1399;47.072;15.452;2024-02-26T11:00:45;13.40;48.30
2783;DHT22;1399;47.072;15.452;2024-02-26T11:03:14;13.50;48.30
2783;DHT22;1399;47.072;15.452;2024-02-26T11:05:43;13.60;48.20
2783;DHT22;1399;47.072;15.452;2024-02-26T11:08:11;13.70;48.20
2783;DHT22;1399;47.072;15.452;2024-02-26T11:10:37;13.70;48.10
2783;DHT22;1399;47.072;15.452;2024-02-26T11:13:05;13.80;48.10
2783;DHT22;1399;47.072;15.452;2024-02-26T11:15:32;13.80;48.20
2783;DHT22;1399;47.072;15.452;2024-02-26T11:17:59;13.80;48.10
2783;DHT22;1399;47.072;15.452;2024-02-26T11:20:28;13.80;48.20
2783;DHT22;1399;47.072;15.452;2024-02-26T11:22:55;13.90;49.00
2783;DHT22;1399;47.072;15.452;2024-02-26T11:25:21;13.90;48.40
2783;DHT22;1399;47.072;15.452;2024-02-26T11:27:58;13.80;48.30
2783;DHT22;1399;47.072;15.452;2024-02-26T11:30:30;13.80;48.30
2783;DHT22;1399;47.072;15.452;2024-02-26T11:32:56;13.80;48.30
2783;DHT22;1399;47.072;15.452;2024-02-26T11:35:22;13.90;48.40
2783;DHT22;1399;47.072;15.452;2024-02-26T11:37:54;13.90;48.50
2783;DHT22;1399;47.072;15.452;2024-02-26T11:40:25;13.90;48.60
2783;DHT22;1399;47.072;15.452;2024-02-26T11:42:51;13.90;48.50
2783;DHT22;1399;47.072;15.452;2024-02-26T11:48:03;14.00;48.50
2783;DHT22;1399;47.072;15.452;2024-02-26T11:50:36;14.10;48.60
2783;DHT22;1399;47.072;15.452;2024-02-26T11:53:46;14.10;48.60
2783;DHT22;1399;47.072;15.452;2024-02-26T11:56:21;14.10;48.60
2783;DHT22;1399;47.072;15.452;2024-02-26T11:58:59;14.20;48.50
2783;DHT22;1399;47.072;15.452;2024-02-26T12:01:40;14.20;48.50
2783;DHT22;1399;47.072;15.452;2024-02-26T12:04:08;14.20;48.50
2783;DHT22;1399;47.072;15.452;2024-02-26T12:06:47;14.20;48.40
2783;DHT22;1399;47.072;15.452;2024-02-26T12:09:39;14.20;48.30
2783;DHT22;1399;47.072;15.452;2024-02-26T12:12:12;14.20;48.20
2783;DHT22;1399;47.072;15.452;2024-02-26T12:14:40;14.20;48.10
2783;DHT22;1399;47.072;15.452;2024-02-26T12:17:20;14.20;48.10
2783;DHT22;1399;47.072;15.452;2024-02-26T12:19:46;14.30;48.30
2783;DHT22;1399;47.072;15.452;2024-02-26T12:22:15;14.30;48.20
2783;DHT22;1399;47.072;15.452;2024-02-26T12:24:42;14.30;48.10
2783;DHT22;1399;47.072;15.452;2024-02-26T12:27:08;14.30;48.10
2783;DHT22;1399;47.072;15.452;2024-02-26T12:29:34;14.40;48.10
2783;DHT22;1399;47.072;15.452;2024-02-26T12:32:00;14.40;48.00
2783;DHT22;1399;47.072;15.452;2024-02-26T12:34:26;14.40;48.00
2783;DHT22;1399;47.072;15.452;2024-02-26T12:36:54;14.40;47.90
2783;DHT22;1399;47.072;15.452;2024-02-26T12:39:20;14.40;47.80
2783;DHT22;1399;47.072;15.452;2024-02-26T12:41:47;14.50;47.70
2783;DHT22;1399;47.072;15.452;2024-02-26T12:44:16;14.50;47.60
2783;DHT22;1399;47.072;15.452;2024-02-26T12:46:42;14.50;47.50
2783;DHT22;1399;47.072;15.452;2024-02-26T12:49:08;14.50;47.50
2783;DHT22;1399;47.072;15.452;2024-02-26T12:51:40;14.60;47.40
2783;DHT22;1399;47.072;15.452;2024-02-26T12:54:07;14.60;47.30
2783;DHT22;1399;47.072;15.452;2024-02-26T12:56:34;14.60;47.20
2783;DHT22;1399;47.072;15.452;2024-02-26T12:59:00;14.70;47.10
2783;DHT22;1399;47.072;15.452;2024-02-26T13:01:26;14.70;47.10
2783;DHT22;1399;47.072;15.452;2024-02-26T13:03:53;14.70;47.00
2783;DHT22;1399;47.072;15.452;2024-02-26T13:06:19;14.70;47.00
2783;DHT22;1399;47.072;15.452;2024-02-26T13:08:47;14.70;47.00
2783;DHT22;1399;47.072;15.452;2024-02-26T13:11:13;14.70;47.00
2783;DHT22;1399;47.072;15.452;2024-02-26T13:13:39;14.70;47.10
2783;DHT22;1399;47.072;15.452;2024-02-26T13:16:06;14.70;47.10
2783;DHT22;1399;47.072;15.452;2024-02-26T13:18:34;14.70;47.10
2783;DHT22;1399;47.072;15.452;2024-02-26T13:21:09;14.70;47.10
2783;DHT22;1399;47.072;15.452;2024-02-26T13:23:36;14.60;47.10
2783;DHT22;1399;47.072;15.452;2024-02-26T13:26:02;14.60;47.30
2783;DHT22;1399;47.072;15.452;2024-02-26T13:28:27;14.60;47.40
2783;DHT22;1399;47.072;15.452;2024-02-26T13:30:54;14.60;47.60
2783;DHT22;1399;47.072;15.452;2024-02-26T13:33:24;14.60;47.90
2783;DHT22;1399;47.072;15.452;2024-02-26T13:35:51;14.60;48.10
2783;DHT22;1399;47.072;15.452;2024-02-26T13:38:17;14.60;48.10
2783;DHT22;1399;47.072;15.452;2024-02-26T13:40:43;14.60;48.20
2783;DHT22;1399;47.072;15.452;2024-02-26T13:43:09;14.60;48.30
2783;DHT22;1399;47.072;15.452;2024-02-26T13:45:36;14.60;48.30
2783;DHT22;1399;47.072;15.452;2024-02-26T13:48:04;14.60;48.40
2783;DHT22;1399;47.072;15.452;2024-02-26T13:50:30;14.50;49.00
2783;DHT22;1399;47.072;15.452;2024-02-26T13:52:56;14.50;48.40
2783;DHT22;1399;47.072;15.452;2024-02-26T13:55:25;14.50;48.50
2783;DHT22;1399;47.072;15.452;2024-02-26T13:57:56;14.50;48.60
2783;DHT22;1399;47.072;15.452;2024-02-26T14:00:23;14.50;48.60
2783;DHT22;1399;47.072;15.452;2024-02-26T14:02:50;14.60;48.70
2783;DHT22;1399;47.072;15.452;2024-02-26T14:05:16;14.60;48.70
2783;DHT22;1399;47.072;15.452;2024-02-26T14:07:42;14.60;48.60
2783;DHT22;1399;47.072;15.452;2024-02-26T14:10:09;14.60;48.50
2783;DHT22;1399;47.072;15.452;2024-02-26T14:12:37;14.60;48.40
2783;DHT22;1399;47.072;15.452;2024-02-26T14:15:03;14.60;48.40
2783;DHT22;1399;47.072;15.452;2024-02-26T14:17:30;14.60;48.40
2783;DHT22;1399;47.072;15.452;2024-02-26T14:19:56;14.60;48.30
2783;DHT22;1399;47.072;15.452;2024-02-26T14:22:22;14.60;48.20
2783;DHT22;1399;47.072;15.452;2024-02-26T14:24:48;14.60;48.10
2783;DHT22;1399;47.072;15.452;2024-02-26T14:27:14;14.60;47.90
2783;DHT22;1399;47.072;15.452;2024-02-26T14:29:41;14.60;47.80
2783;DHT22;1399;47.072;15.452;2024-02-26T14:32:09;14.60;47.70
2783;DHT22;1399;47.072;15.452;2024-02-26T14:34:35;14.60;47.70
2783;DHT22;1399;47.072;15.452;2024-02-26T14:37:01;14.60;47.60
2783;DHT22;1399;47.072;15.452;2024-02-26T14:39:27;14.60;47.50
2783;DHT22;1399;47.072;15.452;2024-02-26T14:41:53;14.60;47.40
2783;DHT22;1399;47.072;15.452;2024-02-26T14:44:18;14.60;47.90
2783;DHT22;1399;47.072;15.452;2024-02-26T14:46:44;14.60;47.20
2783;DHT22;1399;47.072;15.452;2024-02-26T14:49:10;14.70;47.10
2783;DHT22;1399;47.072;15.452;2024-02-26T14:51:38;14.60;47.00
2783;DHT22;1399;47.072;15.452;2024-02-26T14:54:03;14.60;47.00
2783;DHT22;1399;47.072;15.452;2024-02-26T14:56:29;14.70;47.00
2783;DHT22;1399;47.072;15.452;2024-02-26T14:58:55;14.60;46.80
2783;DHT22;1399;47.072;15.452;2024-02-26T15:01:23;14.60;46.70
2783;DHT22;1399;47.072;15.452;2024-02-26T15:03:49;14.60;46.70
2783;DHT22;1399;47.072;15.452;2024-02-26T15:06:15;14.60;46.80
2783;DHT22;1399;47.072;15.452;2024-02-26T15:08:41;14.60;46.90
2783;DHT22;1399;47.072;15.452;2024-02-26T15:11:06;14.60;47.00
2783;DHT22;1399;47.072;15.452;2024-02-26T15:13:33;14.60;47.20
2783;DHT22;1399;47.072;15.452;2024-02-26T15:15:59;14.60;47.30
2783;DHT22;1399;47.072;15.452;2024-02-26T15:18:26;14.60;47.20
2783;DHT22;1399;47.072;15.452;2024-02-26T15:20:52;14.60;47.30
2783;DHT22;1399;47.072;15.452;2024-02-26T15:23:18;14.60;47.30
2783;DHT22;1399;47.072;15.452;2024-02-26T15:25:44;14.60;47.30
2783;DHT22;1399;47.072;15.452;2024-02-26T15:28:10;14.60;47.30
2783;DHT22;1399;47.072;15.452;2024-02-26T15:30:39;14.50;47.30
2783;DHT22;1399;47.072;15.452;2024-02-26T15:33:05;14.50;47.30
2783;DHT22;1399;47.072;15.452;2024-02-26T15:35:30;14.50;47.30
2783;DHT22;1399;47.072;15.452;2024-02-26T15:37:56;14.50;47.20
2783;DHT22;1399;47.072;15.452;2024-02-26T15:40:23;14.50;47.30
2783;DHT22;1399;47.072;15.452;2024-02-26T15:42:49;14.50;47.30
2783;DHT22;1399;47.072;15.452;2024-02-26T15:45:15;14.50;47.20
2783;DHT22;1399;47.072;15.452;2024-02-26T15:47:42;14.40;47.10
2783;DHT22;1399;47.072;15.452;2024-02-26T15:50:08;14.40;47.10
2783;DHT22;1399;47.072;15.452;2024-02-26T15:52:36;14.40;47.20
2783;DHT22;1399;47.072;15.452;2024-02-26T15:55:05;14.40;47.20
2783;DHT22;1399;47.072;15.452;2024-02-26T15:57:31;14.40;47.20
2783;DHT22;1399;47.072;15.452;2024-02-26T15:59:56;14.40;47.30
2783;DHT22;1399;47.072;15.452;2024-02-26T16:02:26;14.40;47.50